Time;durP1;ratioP1;P1;durP2;ratioP2;P2;SDS_P1;SDS_P2;PMS_P1;PMS_P2;Temp;Humidity;BMP_temperature;BMP_pressure;BME280_temperature;BME280_humidity;BME280_pressure;Samples;Min_cycle;Max_cycle;Signal;HPM_P1;HPM_P2
2022/01/10 00:00:55;;;;;;;11.73;6.77;;;;;;;;;;5096585;28;20458;-72
2022/01/10 00:03:26;;;;;;;9.17;5.80;;;;;;;;;;5093377;28;21183;-74
2022/01/10 00:05:54;;;;;;;12.17;6.23;;;;;;;;;;5097773;28;20490;-72
2022/01/10 00:08:22;;;;;;;11.23;6.00;;;;;;;;;;5097543;28;20472;-73
2022/01/10 00:10:50;;;;;;;11.30;6.87;;;;;;;;;;5086489;28;20460;-73
2022/01/10 00:13:19;;;;;;;10.20;5.60;;;;;;;;;;5077087;28;20848;-74
2022/01/10 00:15:47;;;;;;;12.70;6.30;;;;;;;;;;5078306;28;20476;-73
2022/01/10 00:18:17;;;;;;;17.00;6.20;;;;;;;;;;5062038;28;20460;-73
2022/01/10 00:20:45;;;;;;;13.93;6.60;;;;;;;;;;5070207;28;20458;-74
2022/01/10 00:23:13;;;;;;;14.63;7.10;;;;;;;;;;5081605;28;20468;-73
2022/01/10 00:25:41;;;;;;;10.60;6.20;;;;;;;;;;5095773;28;20544;-73
2022/01/10 00:28:11;;;;;;;12.13;5.73;;;;;;;;;;5096237;28;20546;-73
2022/01/10 00:30:38;;;;;;;19.47;7.20;;;;;;;;;;5095815;28;20459;-73
2022/01/10 00:33:07;;;;;;;11.77;7.00;;;;;;;;;;5082219;28;20719;-73
2022/01/10 00:35:36;;;;;;;8.57;5.83;;;;;;;;;;5096171;28;20488;-74
2022/01/10 00:38:04;;;;;;;9.50;6.20;;;;;;;;;;5057490;28;20445;-73
2022/01/10 00:40:32;;;;;;;9.30;6.50;;;;;;;;;;5058228;28;20485;-73
2022/01/10 00:43:00;;;;;;;9.00;5.30;;;;;;;;;;5079315;28;20471;-73
2022/01/10 00:45:28;;;;;;;7.97;5.70;;;;;;;;;;5085300;28;20445;-73
2022/01/10 00:47:59;;;;;;;9.80;5.50;;;;;;;;;;5087905;28;20452;-73
2022/01/10 00:50:27;;;;;;;12.00;5.80;;;;;;;;;;5100715;28;20487;-73
2022/01/10 00:52:57;;;;;;;10.37;5.40;;;;;;;;;;5089059;28;20552;-73
2022/01/10 00:55:28;;;;;;;11.70;5.50;;;;;;;;;;5100860;28;20459;-73
2022/01/10 00:58:00;;;;;;;8.83;5.50;;;;;;;;;;5092587;28;20892;-73
2022/01/10 01:00:27;;;;;;;13.77;5.50;;;;;;;;;;5086408;28;20451;-73
2022/01/10 01:02:55;;;;;;;10.63;5.07;;;;;;;;;;5082376;28;20455;-74
2022/01/10 01:05:23;;;;;;;9.10;6.13;;;;;;;;;;5081583;28;20460;-73
2022/01/10 01:07:50;;;;;;;6.17;4.30;;;;;;;;;;5082594;28;20485;-73
2022/01/10 01:13:21;;;;;;;10.30;5.70;;;;;;;;;;5063348;28;20951;-73
2022/01/10 01:16:07;;;;;;;11.43;4.53;;;;;;;;;;5084409;28;20506;-74
2022/01/10 01:19:03;;;;;;;14.27;5.97;;;;;;;;;;5099034;28;20727;-73
2022/01/10 01:24:15;;;;;;;8.17;4.40;;;;;;;;;;5092012;28;20454;-73
2022/01/10 01:26:46;;;;;;;9.73;5.50;;;;;;;;;;5083779;28;20480;-74
2022/01/10 01:29:15;;;;;;;6.97;4.40;;;;;;;;;;5096250;28;20466;-73
2022/01/10 01:31:42;;;;;;;12.33;5.67;;;;;;;;;;5086128;28;20455;-73
2022/01/10 01:34:16;;;;;;;10.10;4.67;;;;;;;;;;5089082;28;20558;-73
2022/01/10 01:39:43;;;;;;;10.73;5.60;;;;;;;;;;5079590;28;20958;-73
2022/01/10 01:44:54;;;;;;;8.73;5.03;;;;;;;;;;5088044;28;21037;-73
2022/01/10 01:47:22;;;;;;;10.20;4.80;;;;;;;;;;5087427;28;20507;-73
2022/01/10 01:49:49;;;;;;;6.50;4.20;;;;;;;;;;5095947;28;20571;-73
2022/01/10 01:52:17;;;;;;;8.20;4.80;;;;;;;;;;5099593;28;20471;-74
2022/01/10 01:54:45;;;;;;;11.23;4.10;;;;;;;;;;5083883;28;20552;-73
2022/01/10 01:57:14;;;;;;;5.23;3.77;;;;;;;;;;5092444;28;20903;-73
2022/01/10 01:59:41;;;;;;;5.43;4.03;;;;;;;;;;5080147;28;20495;-73
2022/01/10 02:02:09;;;;;;;12.20;7.40;;;;;;;;;;5060098;28;20877;-74
2022/01/10 02:04:37;;;;;;;17.47;5.30;;;;;;;;;;5079201;28;20541;-73
2022/01/10 02:07:05;;;;;;;13.40;4.70;;;;;;;;;;5090799;28;20581;-73
2022/01/10 02:09:34;;;;;;;8.03;4.50;;;;;;;;;;5082805;28;20460;-73
2022/01/10 02:12:03;;;;;;;10.47;4.63;;;;;;;;;;5083400;28;20455;-73
2022/01/10 02:14:33;;;;;;;9.07;4.63;;;;;;;;;;5079203;28;20471;-73
2022/01/10 02:17:00;;;;;;;7.60;4.33;;;;;;;;;;5079643;28;20456;-73
2022/01/10 02:19:34;;;;;;;7.63;4.60;;;;;;;;;;5078649;28;20448;-73
2022/01/10 02:22:03;;;;;;;6.70;4.60;;;;;;;;;;5088089;28;20471;-73
2022/01/10 02:24:31;;;;;;;9.43;5.00;;;;;;;;;;5092606;28;20451;-74
2022/01/10 02:26:59;;;;;;;7.90;4.10;;;;;;;;;;5091094;28;20948;-73
2022/01/10 02:29:27;;;;;;;6.67;3.93;;;;;;;;;;5090551;28;20455;-73
2022/01/10 02:31:55;;;;;;;6.90;4.23;;;;;;;;;;5092019;28;20456;-73
2022/01/10 02:34:25;;;;;;;9.33;4.47;;;;;;;;;;5089866;28;20539;-73
2022/01/10 02:36:57;;;;;;;9.50;4.30;;;;;;;;;;5087502;28;20465;-74
2022/01/10 02:39:26;;;;;;;5.77;3.40;;;;;;;;;;5084297;28;20471;-74
2022/01/10 02:41:54;;;;;;;15.13;4.10;;;;;;;;;;5097147;28;20555;-73
2022/01/10 02:44:22;;;;;;;11.67;5.73;;;;;;;;;;5086149;28;20456;-73
2022/01/10 02:46:50;;;;;;;7.80;3.63;;;;;;;;;;5097448;28;20506;-74
2022/01/10 02:49:24;;;;;;;7.00;3.00;;;;;;;;;;5082006;28;20732;-73
2022/01/10 02:51:52;;;;;;;6.43;3.10;;;;;;;;;;5093298;28;20773;-73
2022/01/10 02:54:23;;;;;;;8.73;3.90;;;;;;;;;;5090045;28;20449;-74
2022/01/10 02:56:54;;;;;;;8.90;5.23;;;;;;;;;;5079443;28;20722;-73
2022/01/10 02:59:22;;;;;;;17.60;3.90;;;;;;;;;;5077629;28;20463;-73
2022/01/10 03:01:50;;;;;;;4.97;2.83;;;;;;;;;;5095609;28;20586;-73
2022/01/10 03:04:18;;;;;;;12.40;4.90;;;;;;;;;;5094270;28;20480;-73
2022/01/10 03:06:48;;;;;;;16.10;4.80;;;;;;;;;;5077991;28;20480;-73
2022/01/10 03:09:16;;;;;;;9.73;3.37;;;;;;;;;;5089807;28;20452;-74
2022/01/10 03:11:44;;;;;;;6.50;3.57;;;;;;;;;;5088266;28;20799;-73
2022/01/10 03:14:13;;;;;;;6.57;3.97;;;;;;;;;;5086126;28;20523;-73
2022/01/10 03:16:41;;;;;;;8.70;4.37;;;;;;;;;;5097265;28;21188;-74
2022/01/10 03:19:09;;;;;;;7.60;3.53;;;;;;;;;;5093608;28;20815;-74
2022/01/10 03:21:36;;;;;;;11.30;3.40;;;;;;;;;;5081495;28;20471;-73
2022/01/10 03:24:04;;;;;;;16.13;3.93;;;;;;;;;;5093739;28;20537;-73
2022/01/10 03:26:32;;;;;;;5.63;3.67;;;;;;;;;;5078743;28;20511;-73
2022/01/10 03:29:00;;;;;;;5.43;3.40;;;;;;;;;;5086581;28;20444;-73
2022/01/10 03:31:29;;;;;;;6.83;3.23;;;;;;;;;;5095583;28;20465;-73
2022/01/10 03:33:57;;;;;;;11.80;3.20;;;;;;;;;;5083634;28;20491;-74
2022/01/10 03:36:24;;;;;;;11.07;4.73;;;;;;;;;;5095947;28;20460;-73
2022/01/10 03:38:52;;;;;;;16.57;3.30;;;;;;;;;;5078887;28;20441;-73
2022/01/10 03:41:20;;;;;;;5.60;3.77;;;;;;;;;;5077196;28;20759;-74
2022/01/10 03:43:49;;;;;;;9.37;3.60;;;;;;;;;;5089358;28;20909;-73
2022/01/10 03:46:16;;;;;;;10.87;3.77;;;;;;;;;;5090702;28;21036;-74
2022/01/10 03:48:46;;;;;;;11.87;3.73;;;;;;;;;;5089169;28;20460;-74
2022/01/10 03:51:14;;;;;;;5.10;3.13;;;;;;;;;;5090126;28;20468;-73
2022/01/10 03:53:41;;;;;;;8.30;3.30;;;;;;;;;;5093377;28;20830;-73
2022/01/10 03:56:09;;;;;;;9.00;3.27;;;;;;;;;;5091633;28;20452;-74
2022/01/10 03:58:38;;;;;;;11.43;3.70;;;;;;;;;;5085825;28;20448;-73
2022/01/10 04:01:08;;;;;;;5.90;4.10;;;;;;;;;;5093008;28;20738;-73
2022/01/10 04:03:37;;;;;;;10.47;3.73;;;;;;;;;;5097364;28;20520;-74
2022/01/10 04:06:06;;;;;;;5.83;3.20;;;;;;;;;;5094952;28;20463;-73
2022/01/10 04:08:34;;;;;;;14.00;4.00;;;;;;;;;;5079605;28;20487;-73
2022/01/10 04:11:02;;;;;;;8.40;3.30;;;;;;;;;;5080974;28;20937;-74
2022/01/10 04:13:29;;;;;;;7.67;3.63;;;;;;;;;;5096291;28;20460;-73
2022/01/10 04:15:57;;;;;;;6.00;3.60;;;;;;;;;;5085033;28;20456;-74
2022/01/10 04:18:25;;;;;;;9.00;2.97;;;;;;;;;;5080249;28;20499;-74
2022/01/10 04:20:53;;;;;;;16.67;4.20;;;;;;;;;;5089160;28;20449;-74
2022/01/10 04:23:22;;;;;;;5.90;3.23;;;;;;;;;;5088486;28;20467;-74
2022/01/10 04:25:50;;;;;;;9.60;3.77;;;;;;;;;;5090500;28;20456;-73
2022/01/10 04:28:18;;;;;;;9.27;3.70;;;;;;;;;;5080960;28;20849;-73
2022/01/10 04:30:46;;;;;;;7.90;3.53;;;;;;;;;;5080095;28;21018;-73
2022/01/10 04:33:17;;;;;;;8.83;3.53;;;;;;;;;;5096924;28;20503;-73
2022/01/10 04:35:47;;;;;;;5.70;3.10;;;;;;;;;;5087424;28;20536;-73
2022/01/10 04:38:15;;;;;;;7.57;2.70;;;;;;;;;;5100726;28;20901;-73
2022/01/10 04:40:45;;;;;;;6.30;3.27;;;;;;;;;;5100723;28;20497;-73
2022/01/10 04:43:12;;;;;;;9.80;3.47;;;;;;;;;;5086606;28;20461;-73
2022/01/10 04:45:42;;;;;;;15.07;3.80;;;;;;;;;;5093819;28;20852;-73
2022/01/10 04:48:18;;;;;;;7.20;3.43;;;;;;;;;;5087741;28;20487;-73
2022/01/10 04:53:35;;;;;;;7.43;4.17;;;;;;;;;;5095535;28;20446;-73
2022/01/10 04:56:05;;;;;;;8.50;3.50;;;;;;;;;;5093486;28;20492;-73
2022/01/10 04:58:34;;;;;;;9.97;3.33;;;;;;;;;;5091044;28;20735;-73
2022/01/10 05:01:03;;;;;;;6.53;3.30;;;;;;;;;;5086407;28;20449;-73
2022/01/10 05:03:31;;;;;;;11.13;3.60;;;;;;;;;;5079687;28;20444;-73
2022/01/10 05:05:59;;;;;;;6.60;2.50;;;;;;;;;;5082027;28;20456;-73
2022/01/10 05:08:27;;;;;;;9.20;3.80;;;;;;;;;;5091394;28;20542;-73
2022/01/10 05:10:58;;;;;;;10.30;3.63;;;;;;;;;;5094696;28;20907;-73
2022/01/10 05:13:27;;;;;;;10.47;4.17;;;;;;;;;;5097629;28;20538;-73
2022/01/10 05:15:55;;;;;;;9.43;3.97;;;;;;;;;;5084825;28;20743;-73
2022/01/10 05:21:05;;;;;;;7.13;3.67;;;;;;;;;;5078027;28;20444;-73
2022/01/10 05:23:33;;;;;;;9.40;3.77;;;;;;;;;;5094454;28;20440;-73
2022/01/10 05:26:01;;;;;;;5.37;2.97;;;;;;;;;;5096606;28;20860;-73
2022/01/10 05:28:30;;;;;;;9.80;3.60;;;;;;;;;;5062530;28;20499;-73
2022/01/10 05:31:00;;;;;;;10.00;3.20;;;;;;;;;;5087213;28;20468;-74
2022/01/10 05:33:28;;;;;;;7.80;3.97;;;;;;;;;;5098864;28;20801;-74
2022/01/10 05:35:56;;;;;;;18.00;4.60;;;;;;;;;;5082163;28;20472;-73
2022/01/10 05:38:27;;;;;;;10.67;4.27;;;;;;;;;;5098444;28;20844;-73
2022/01/10 05:40:54;;;;;;;14.30;4.17;;;;;;;;;;5097217;28;20474;-73
2022/01/10 05:43:22;;;;;;;7.43;3.83;;;;;;;;;;5081464;28;20465;-73
2022/01/10 05:45:51;;;;;;;8.97;4.50;;;;;;;;;;5093867;28;20776;-73
2022/01/10 05:48:25;;;;;;;7.87;3.70;;;;;;;;;;5086223;28;20479;-73
2022/01/10 05:50:53;;;;;;;21.67;5.13;;;;;;;;;;5078631;28;20482;-73
2022/01/10 05:53:21;;;;;;;22.43;5.70;;;;;;;;;;5095790;28;20459;-73
2022/01/10 05:55:49;;;;;;;21.33;7.37;;;;;;;;;;5096266;28;20463;-73
2022/01/10 05:58:17;;;;;;;21.10;7.50;;;;;;;;;;5077463;28;20475;-73
2022/01/10 06:00:45;;;;;;;12.73;7.83;;;;;;;;;;5094465;28;20460;-74
2022/01/10 06:03:17;;;;;;;17.93;8.13;;;;;;;;;;5097116;28;20491;-74
2022/01/10 06:05:45;;;;;;;11.90;6.50;;;;;;;;;;5066966;28;20891;-74
2022/01/10 06:08:14;;;;;;;17.33;8.43;;;;;;;;;;5087514;28;20487;-74
2022/01/10 06:10:43;;;;;;;20.00;7.60;;;;;;;;;;5087065;28;20458;-74
2022/01/10 06:13:11;;;;;;;14.60;6.30;;;;;;;;;;5090482;28;20548;-74
2022/01/10 06:15:41;;;;;;;16.90;9.77;;;;;;;;;;5084180;28;20719;-74
2022/01/10 06:18:09;;;;;;;18.90;7.73;;;;;;;;;;5076690;28;20851;-74
2022/01/10 06:20:42;;;;;;;16.87;6.73;;;;;;;;;;5064076;28;20452;-74
2022/01/10 06:23:13;;;;;;;22.17;8.97;;;;;;;;;;5088123;28;20526;-74
2022/01/10 06:25:41;;;;;;;10.70;5.60;;;;;;;;;;5076827;28;20474;-74
2022/01/10 06:28:09;;;;;;;15.07;6.13;;;;;;;;;;5091826;28;20549;-74
2022/01/10 06:30:37;;;;;;;25.00;9.30;;;;;;;;;;5089987;28;20942;-74
2022/01/10 06:33:05;;;;;;;18.50;7.07;;;;;;;;;;5087775;28;20459;-74
2022/01/10 06:35:33;;;;;;;13.83;6.10;;;;;;;;;;5086127;28;20499;-74
2022/01/10 06:38:04;;;;;;;11.40;4.90;;;;;;;;;;5092397;28;20810;-74
2022/01/10 06:40:31;;;;;;;14.77;6.10;;;;;;;;;;5094630;28;20449;-74
2022/01/10 06:42:59;;;;;;;9.33;6.43;;;;;;;;;;5088905;28;20464;-74
2022/01/10 06:45:30;;;;;;;12.40;5.53;;;;;;;;;;5074537;28;20448;-74
2022/01/10 06:47:58;;;;;;;13.00;5.37;;;;;;;;;;5075171;28;20927;-74
2022/01/10 06:50:33;;;;;;;8.73;4.97;;;;;;;;;;5074486;28;20533;-75
2022/01/10 06:53:03;;;;;;;7.63;4.57;;;;;;;;;;5078885;28;20790;-74
2022/01/10 06:55:30;;;;;;;9.77;6.33;;;;;;;;;;5075360;28;20457;-74
2022/01/10 06:58:01;;;;;;;12.90;5.53;;;;;;;;;;5075543;28;20507;-74
2022/01/10 07:00:28;;;;;;;7.80;5.83;;;;;;;;;;5075248;28;20453;-74
2022/01/10 07:03:02;;;;;;;12.43;5.67;;;;;;;;;;5084120;28;20445;-75
2022/01/10 07:05:31;;;;;;;9.83;5.97;;;;;;;;;;5083167;28;20456;-75
2022/01/10 07:07:59;;;;;;;7.70;5.00;;;;;;;;;;5079240;28;20511;-74
2022/01/10 07:10:28;;;;;;;10.07;5.37;;;;;;;;;;5074818;28;20460;-74
2022/01/10 07:12:57;;;;;;;9.13;5.60;;;;;;;;;;5087778;28;20460;-75
2022/01/10 07:15:26;;;;;;;8.87;5.50;;;;;;;;;;5093986;28;20518;-74
2022/01/10 07:17:58;;;;;;;13.47;6.10;;;;;;;;;;5070319;28;20468;-75
2022/01/10 07:20:27;;;;;;;13.73;6.33;;;;;;;;;;5083606;28;20519;-74
2022/01/10 07:22:56;;;;;;;9.30;5.77;;;;;;;;;;5076061;28;20464;-74
2022/01/10 07:25:25;;;;;;;8.30;5.43;;;;;;;;;;5076036;28;20553;-75
2022/01/10 07:27:57;;;;;;;9.47;6.70;;;;;;;;;;5074955;28;20491;-74
2022/01/10 07:30:26;;;;;;;10.20;6.20;;;;;;;;;;5077958;28;20535;-74
2022/01/10 07:32:55;;;;;;;9.00;5.90;;;;;;;;;;5076187;28;20970;-75
2022/01/10 07:35:26;;;;;;;11.67;5.73;;;;;;;;;;5076695;28;20464;-74
2022/01/10 07:37:55;;;;;;;9.73;6.63;;;;;;;;;;5085254;28;20462;-74
2022/01/10 07:40:39;;;;;;;10.40;7.33;;;;;;;;;;5076105;28;20456;-74
2022/01/10 07:46:01;;;;;;;11.33;7.97;;;;;;;;;;5088508;28;20456;-75
2022/01/10 07:48:34;;;;;;;14.20;6.73;;;;;;;;;;5077869;28;20848;-73
2022/01/10 07:51:03;;;;;;;11.40;7.90;;;;;;;;;;5074512;28;20854;-73
2022/01/10 07:53:31;;;;;;;10.80;7.10;;;;;;;;;;5077265;28;20460;-73
2022/01/10 07:56:14;;;;;;;10.00;7.23;;;;;;;;;;5083391;28;20453;-73
2022/01/10 07:58:54;;;;;;;12.00;7.30;;;;;;;;;;5068224;28;20732;-74
2022/01/10 08:01:25;;;;;;;11.47;7.83;;;;;;;;;;5063997;28;20463;-74
2022/01/10 08:03:53;;;;;;;10.57;7.50;;;;;;;;;;5075747;28;20547;-75
2022/01/10 08:06:22;;;;;;;11.57;7.37;;;;;;;;;;5076448;28;20457;-75
2022/01/10 08:08:51;;;;;;;14.17;9.07;;;;;;;;;;5076193;28;20504;-75
2022/01/10 08:11:26;;;;;;;13.00;8.77;;;;;;;;;;5086881;28;20773;-75
2022/01/10 08:14:02;;;;;;;14.23;7.67;;;;;;;;;;5075062;28;20547;-75
2022/01/10 08:16:30;;;;;;;10.73;7.53;;;;;;;;;;5075708;28;20755;-75
2022/01/10 08:19:07;;;;;;;12.73;8.67;;;;;;;;;;5067274;28;20912;-75
2022/01/10 08:21:35;;;;;;;13.00;8.27;;;;;;;;;;5066557;28;20523;-75
2022/01/10 08:24:09;;;;;;;16.27;10.10;;;;;;;;;;5076659;28;20484;-75
2022/01/10 08:26:37;;;;;;;13.90;9.40;;;;;;;;;;5076275;28;20529;-75
2022/01/10 08:29:07;;;;;;;12.50;8.77;;;;;;;;;;5075933;28;20496;-74
2022/01/10 08:31:38;;;;;;;15.60;9.87;;;;;;;;;;5075065;28;20543;-74
2022/01/10 08:34:08;;;;;;;14.30;9.13;;;;;;;;;;5077410;28;20474;-74
2022/01/10 08:36:37;;;;;;;16.83;10.53;;;;;;;;;;5087663;28;20464;-74
2022/01/10 08:39:05;;;;;;;19.23;11.70;;;;;;;;;;5074793;28;20885;-74
2022/01/10 08:41:34;;;;;;;17.83;10.23;;;;;;;;;;5074917;28;20514;-74
2022/01/10 08:44:14;;;;;;;16.97;10.57;;;;;;;;;;5073688;28;20469;-75
2022/01/10 08:46:42;;;;;;;22.63;12.20;;;;;;;;;;5070317;28;20559;-74
2022/01/10 08:49:12;;;;;;;20.90;11.73;;;;;;;;;;5086205;28;20880;-74
2022/01/10 08:51:43;;;;;;;18.43;9.80;;;;;;;;;;5089825;28;20452;-75
2022/01/10 08:54:14;;;;;;;17.93;12.90;;;;;;;;;;5084509;28;20460;-73
2022/01/10 08:56:41;;;;;;;16.37;10.63;;;;;;;;;;5063737;28;20591;-73
2022/01/10 08:59:13;;;;;;;18.63;10.63;;;;;;;;;;5084296;28;20563;-73
2022/01/10 09:01:42;;;;;;;18.43;11.40;;;;;;;;;;5073214;28;20459;-73
2022/01/10 09:04:15;;;;;;;19.57;10.93;;;;;;;;;;5079950;28;20479;-74
2022/01/10 09:06:43;;;;;;;20.57;13.30;;;;;;;;;;5073446;28;20531;-74
2022/01/10 09:09:15;;;;;;;18.10;11.17;;;;;;;;;;5074559;28;20896;-75
2022/01/10 09:11:45;;;;;;;19.63;11.10;;;;;;;;;;5075108;28;20476;-74
2022/01/10 09:14:31;;;;;;;17.77;11.93;;;;;;;;;;5078728;28;20451;-74
2022/01/10 09:16:59;;;;;;;21.67;11.87;;;;;;;;;;5079965;28;20548;-73
2022/01/10 09:19:27;;;;;;;23.10;15.10;;;;;;;;;;5098891;28;20971;-74
2022/01/10 09:21:56;;;;;;;16.00;10.80;;;;;;;;;;5096716;28;20577;-74
2022/01/10 09:24:24;;;;;;;16.23;10.80;;;;;;;;;;5077899;28;20452;-74
2022/01/10 09:26:54;;;;;;;16.00;10.10;;;;;;;;;;5076591;28;20812;-74
2022/01/10 09:29:32;;;;;;;21.60;10.90;;;;;;;;;;5084961;28;20473;-74
2022/01/10 09:34:50;;;;;;;15.13;11.47;;;;;;;;;;5076431;28;20938;-74
2022/01/10 09:37:25;;;;;;;19.30;10.20;;;;;;;;;;5078687;28;20456;-74
2022/01/10 09:39:57;;;;;;;15.90;10.70;;;;;;;;;;5078119;28;20520;-78
2022/01/10 09:42:33;;;;;;;18.43;11.73;;;;;;;;;;5079016;28;21109;-72
2022/01/10 09:45:06;;;;;;;17.53;10.37;;;;;;;;;;5089919;28;20546;-74
2022/01/10 09:47:34;;;;;;;20.73;11.23;;;;;;;;;;5088509;28;20468;-75
2022/01/10 09:50:08;;;;;;;19.90;11.30;;;;;;;;;;5078921;28;20482;-74
2022/01/10 09:52:38;;;;;;;16.93;9.43;;;;;;;;;;5078378;28;20471;-74
2022/01/10 10:00:59;;;;;;;18.97;11.20;;;;;;;;;;5077114;28;20442;-73
2022/01/10 10:03:30;;;;;;;19.23;11.63;;;;;;;;;;5076538;28;20551;-73
2022/01/10 10:05:59;;;;;;;18.70;12.47;;;;;;;;;;5078568;28;20456;-73
2022/01/10 10:08:39;;;;;;;;;;;;;;;;;;;;;
2022/01/10 10:11:09;;;;;;;16.90;10.53;;;;;;;;;;5073029;28;20455;-73
2022/01/10 10:13:57;;;;;;;17.63;12.50;;;;;;;;;;5072842;28;20534;-75
2022/01/10 10:16:32;;;;;;;18.37;11.10;;;;;;;;;;5066309;28;20472;-74
2022/01/10 10:19:02;;;;;;;16.03;11.07;;;;;;;;;;5059481;28;20568;-74
2022/01/10 10:21:30;;;;;;;16.10;9.77;;;;;;;;;;5076803;28;20448;-73
2022/01/10 10:24:04;;;;;;;18.07;10.97;;;;;;;;;;5080056;28;20470;-73
2022/01/10 10:26:35;;;;;;;18.57;10.90;;;;;;;;;;5073061;28;20447;-73
2022/01/10 10:29:05;;;;;;;19.90;11.20;;;;;;;;;;5088113;28;20480;-73
2022/01/10 10:31:45;;;;;;;16.77;11.90;;;;;;;;;;5084231;28;20457;-75
2022/01/10 10:34:20;;;;;;;22.83;11.90;;;;;;;;;;5073375;28;20788;-75
2022/01/10 10:36:48;;;;;;;17.10;10.07;;;;;;;;;;5075729;28;20931;-74
2022/01/10 10:39:30;;;;;;;17.40;11.13;;;;;;;;;;5075956;28;20469;-73
2022/01/10 10:42:03;;;;;;;18.60;10.40;;;;;;;;;;5076028;28;20464;-73
2022/01/10 10:44:45;;;;;;;18.53;11.97;;;;;;;;;;5075383;28;20534;-73
2022/01/10 10:47:17;;;;;;;21.13;12.00;;;;;;;;;;5075488;28;20840;-74
2022/01/10 10:49:47;;;;;;;15.53;10.60;;;;;;;;;;5076158;28;20472;-74
2022/01/10 10:52:52;;;;;;;17.57;11.67;;;;;;;;;;5078073;28;20853;-74
2022/01/10 10:55:21;;;;;;;18.30;10.80;;;;;;;;;;5056999;28;20554;-74
2022/01/10 10:57:54;;;;;;;17.90;12.03;;;;;;;;;;5067410;28;20832;-74
2022/01/10 11:00:23;;;;;;;17.80;10.00;;;;;;;;;;5076300;28;20472;-74
2022/01/10 11:03:01;;;;;;;15.77;11.00;;;;;;;;;;5073195;28;20461;-73
2022/01/10 11:05:31;;;;;;;18.33;11.93;;;;;;;;;;5073806;28;20542;-73
2022/01/10 11:07:59;;;;;;;17.60;10.90;;;;;;;;;;5074138;28;20471;-72
2022/01/10 11:10:34;;;;;;;18.03;11.53;;;;;;;;;;5075485;28;20802;-73
2022/01/10 11:13:03;;;;;;;21.33;13.97;;;;;;;;;;5070905;28;20542;-72
2022/01/10 11:15:46;;;;;;;21.00;14.03;;;;;;;;;;5061113;28;20855;-74
2022/01/10 11:18:17;;;;;;;25.70;14.17;;;;;;;;;;5072486;28;20444;-74
2022/01/10 11:20:46;;;;;;;19.57;10.57;;;;;;;;;;5075899;28;20468;-74
2022/01/10 11:23:16;;;;;;;18.47;11.57;;;;;;;;;;5076245;28;20509;-74
2022/01/10 11:25:43;;;;;;;17.50;11.33;;;;;;;;;;5077150;28;20483;-75
2022/01/10 11:28:12;;;;;;;17.27;10.53;;;;;;;;;;5077122;28;20453;-74
2022/01/10 11:30:44;;;;;;;17.40;11.83;;;;;;;;;;5072492;28;20938;-73
2022/01/10 11:33:16;;;;;;;19.60;10.87;;;;;;;;;;5074328;28;20500;-73
2022/01/10 11:35:55;;;;;;;23.80;16.97;;;;;;;;;;5075208;28;20463;-74
2022/01/10 11:38:31;;;;;;;14.93;10.27;;;;;;;;;;5076827;28;20782;-73
2022/01/10 11:41:01;;;;;;;17.33;10.00;;;;;;;;;;5075458;28;20464;-74
2022/01/10 11:43:32;;;;;;;20.43;11.40;;;;;;;;;;5073789;28;20456;-73
2022/01/10 11:46:11;;;;;;;16.10;11.13;;;;;;;;;;5075801;28;20468;-73
2022/01/10 11:48:46;;;;;;;19.13;10.93;;;;;;;;;;5074525;28;20895;-73
2022/01/10 11:51:16;;;;;;;19.27;12.90;;;;;;;;;;5075193;28;20864;-73
2022/01/10 11:53:44;;;;;;;19.70;12.67;;;;;;;;;;5075185;28;20453;-74
2022/01/10 11:56:26;;;;;;;24.03;13.67;;;;;;;;;;5075581;28;20457;-74
2022/01/10 11:59:15;;;;;;;17.23;11.37;;;;;;;;;;5074109;28;20460;-75
2022/01/10 12:01:48;;;;;;;27.27;13.33;;;;;;;;;;5066550;28;20460;-74
2022/01/10 12:04:17;;;;;;;24.67;15.63;;;;;;;;;;5065942;28;20537;-74
2022/01/10 12:06:50;;;;;;;22.83;13.87;;;;;;;;;;5075774;28;20472;-73
2022/01/10 12:09:19;;;;;;;26.87;15.30;;;;;;;;;;5074338;28;20491;-74
2022/01/10 12:11:51;;;;;;;26.27;14.67;;;;;;;;;;5075422;28;20479;-74
2022/01/10 12:14:28;;;;;;;29.53;15.63;;;;;;;;;;5075040;28;20468;-73
2022/01/10 12:17:14;;;;;;;;;;;;;;;;;;;;;
2022/01/10 12:19:46;;;;;;;23.50;14.37;;;;;;;;;;5071101;28;20900;-74
2022/01/10 12:22:52;;;;;;;30.97;18.20;;;;;;;;;;5072555;28;20467;-75
2022/01/10 12:25:33;;;;;;;22.70;15.77;;;;;;;;;;5073323;28;20724;-75
2022/01/10 12:31:06;;;;;;;27.37;15.20;;;;;;;;;;5062431;28;20492;-73
2022/01/10 12:37:09;;;;;;;23.47;14.53;;;;;;;;;;5073768;28;20444;-75
2022/01/10 12:43:34;;;;;;;29.47;15.10;;;;;;;;;;5076693;28;20421;-75
2022/01/10 12:46:22;;;;;;;26.40;14.17;;;;;;;;;;5073823;28;20448;-72
2022/01/10 12:51:58;;;;;;;24.83;13.90;;;;;;;;;;5073565;28;20456;-75
2022/01/10 12:57:23;;;;;;;24.60;13.90;;;;;;;;;;5076926;28;20488;-74
2022/01/10 12:59:56;;;;;;;20.47;12.17;;;;;;;;;;5077158;28;20452;-73
2022/01/10 13:02:40;;;;;;;22.87;12.50;;;;;;;;;;5076513;28;20525;-75
2022/01/10 13:05:14;;;;;;;30.53;13.87;;;;;;;;;;5079224;28;21018;-74
2022/01/10 13:07:43;;;;;;;22.17;11.63;;;;;;;;;;5079392;28;20891;-74
2022/01/10 13:10:21;;;;;;;20.63;11.50;;;;;;;;;;5079667;28;20499;-75
2022/01/10 13:13:14;;;;;;;;;;;;;;;;;;;;;
2022/01/10 13:15:44;;;;;;;21.17;12.90;;;;;;;;;;5066740;28;20513;-74
2022/01/10 13:18:41;;;;;;;36.43;18.33;;;;;;;;;;5079510;28;20538;-74
2022/01/10 13:24:39;;;;;;;16.67;9.30;;;;;;;;;;5080482;28;20860;-74
2022/01/10 13:27:31;;;;;;;20.73;11.17;;;;;;;;;;5083294;28;20461;-73
2022/01/10 13:33:46;;;;;;;36.43;15.57;;;;;;;;;;5061630;28;20471;-74
2022/01/10 13:36:53;;;;;;;26.07;15.30;;;;;;;;;;5078808;28;20555;-74
2022/01/10 13:39:28;;;;;;;17.67;10.87;;;;;;;;;;5079252;28;20460;-74
2022/01/10 13:42:02;;;;;;;22.73;12.47;;;;;;;;;;5080592;28;20444;-75
2022/01/10 13:44:49;;;;;;;23.13;13.27;;;;;;;;;;5084683;28;20464;-75
2022/01/10 13:53:42;;;;;;;23.90;14.00;;;;;;;;;;5080797;28;20763;-74
2022/01/10 13:56:45;;;;;;;27.17;15.50;;;;;;;;;;5067857;28;20452;-73
2022/01/10 14:05:27;;;;;;;26.67;15.43;;;;;;;;;;5075911;28;20495;-74
2022/01/10 14:08:19;;;;;;;24.10;15.03;;;;;;;;;;5080062;28;20468;-74
2022/01/10 14:14:01;;;;;;;20.17;13.27;;;;;;;;;;5123593;27;20777;-77
2022/01/10 14:23:04;;;;;;;25.63;15.47;;;;;;;;;;5132098;27;20459;-77
2022/01/10 14:26:03;;;;;;;25.27;13.97;;;;;;;;;;5121639;27;20885;-75
2022/01/10 14:32:08;;;;;;;25.47;13.73;;;;;;;;;;5114379;27;20482;-75
2022/01/10 14:34:44;;;;;;;21.97;13.30;;;;;;;;;;5102001;27;20936;-75
2022/01/10 14:37:12;;;;;;;25.87;13.63;;;;;;;;;;5124283;27;20510;-75
2022/01/10 14:39:44;;;;;;;24.77;14.80;;;;;;;;;;5128039;27;20510;-75
2022/01/10 14:45:11;;;;;;;23.50;12.67;;;;;;;;;;5122656;27;20486;-75
2022/01/10 14:47:49;;;;;;;26.63;15.60;;;;;;;;;;5124112;27;20500;-75
2022/01/10 14:50:19;;;;;;;24.97;14.30;;;;;;;;;;5126188;27;20489;-75
2022/01/10 14:52:49;;;;;;;32.27;14.40;;;;;;;;;;5124947;27;21019;-74
2022/01/10 14:55:20;;;;;;;18.50;11.70;;;;;;;;;;5126796;27;20450;-75
2022/01/10 14:58:09;;;;;;;21.10;12.40;;;;;;;;;;5130628;27;20498;-75
2022/01/10 15:00:54;;;;;;;23.30;11.77;;;;;;;;;;5131311;27;20458;-74
2022/01/10 15:03:28;;;;;;;26.63;11.97;;;;;;;;;;5128485;27;20825;-74
2022/01/10 15:06:00;;;;;;;26.20;14.80;;;;;;;;;;5120475;27;20428;-74
2022/01/10 15:08:28;;;;;;;26.20;12.30;;;;;;;;;;5134470;27;20465;-75
2022/01/10 15:10:58;;;;;;;24.37;15.30;;;;;;;;;;5135542;27;20453;-74
2022/01/10 15:13:33;;;;;;;26.33;13.23;;;;;;;;;;5135489;27;20576;-74
2022/01/10 15:25:08;;;;;;;26.00;13.60;;;;;;;;;;5095064;28;20824;-74
2022/01/10 15:31:09;;;;;;;27.83;15.07;;;;;;;;;;5108176;28;20973;-75
2022/01/10 15:37:03;;;;;;;21.90;13.23;;;;;;;;;;5116125;28;20950;-75
2022/01/10 15:39:43;;;;;;;26.43;15.90;;;;;;;;;;5100038;28;20523;-76
2022/01/10 15:42:22;;;;;;;20.40;12.53;;;;;;;;;;5108835;27;20474;-75
2022/01/10 15:44:56;;;;;;;22.80;13.03;;;;;;;;;;5027104;28;1787547;-75
2022/01/10 15:47:39;;;;;;;20.60;12.10;;;;;;;;;;5080573;28;20198;-75
2022/01/10 15:50:15;;;;;;;25.87;16.33;;;;;;;;;;5089877;28;20595;-74
2022/01/10 15:52:49;;;;;;;19.10;11.20;;;;;;;;;;5083088;28;20495;-75
2022/01/10 15:55:18;;;;;;;31.13;14.87;;;;;;;;;;5077917;28;20708;-75
2022/01/10 15:58:05;;;;;;;26.20;14.43;;;;;;;;;;5089020;28;20906;-75
2022/01/10 16:00:46;;;;;;;26.67;12.07;;;;;;;;;;5083372;28;20447;-77
2022/01/10 16:03:40;;;;;;;28.60;16.93;;;;;;;;;;5097707;28;20447;-74
2022/01/10 16:09:35;;;;;;;32.10;16.47;;;;;;;;;;5075431;28;20467;-75
2022/01/10 16:12:06;;;;;;;29.57;16.90;;;;;;;;;;5081328;28;20468;-75
2022/01/10 16:14:37;;;;;;;24.40;14.97;;;;;;;;;;5093158;28;20464;-74
2022/01/10 16:17:06;;;;;;;21.17;12.00;;;;;;;;;;5085817;28;20538;-74
2022/01/10 16:19:49;;;;;;;27.57;13.90;;;;;;;;;;5084537;28;20456;-74
2022/01/10 16:22:24;;;;;;;25.70;13.37;;;;;;;;;;5081451;28;20510;-74
2022/01/10 16:24:54;;;;;;;27.97;14.57;;;;;;;;;;5080743;28;20451;-73
2022/01/10 16:27:55;;;;;;;23.43;13.40;;;;;;;;;;5086816;28;20448;-73
2022/01/10 16:30:37;;;;;;;25.53;12.97;;;;;;;;;;5088649;28;20474;-74
2022/01/10 16:33:09;;;;;;;23.43;13.93;;;;;;;;;;5095817;28;20942;-74
2022/01/10 16:35:45;;;;;;;25.87;14.00;;;;;;;;;;5081063;28;21087;-75
2022/01/10 16:41:18;;;;;;;23.63;13.07;;;;;;;;;;5082919;28;20439;-74